ウシュアイア の空港の天気 - METARとTAF

ウシュアイア空港 ( SAWH / USH ) - アルゼンチン ティエラ・デル・フエゴ州、ウシュアイア
飛行場実況気象(Metar)
観測時間01/23 05:00 ART (01/23 08:00 UTC)
風向・風速北 3m/s
視程10km以上
天気現象
少しの雲 雲底高度 1370m
気温4℃
湿度75%
気圧999hPa
METARSAWH 230800Z 36006KT 9999 FEW045 04/00 Q0999
過去の天気等 Google飛行場航空写真 Wunderground天気予報

過去48時間のMETAR

飛行場予報(TAF)
発表時間: 1/23 02:00 ART (1/23 05:00 UTC)
予報対象時間: 23日3時 ART ~ 24日3時 ART
風向・風速西北西 5m/s
視程10km以上
天気現象周辺でしゅう雨
全天の8割程度の雲 雲底高度 910m
全天の8割程度の雲 雲底高度 3,050m
23日5時 ART ~ 23日7時 ART に徐々に
風向・風速不定 3m/s
天気現象運行に影響にある天気現象が終了
全天の4割程度の雲 雲底高度 910m
全天の8割程度の雲 雲底高度 2,740m
TAF SAWH 230500Z 2306/2406 29010KT 9999 VCSH BKN030 BKN100 TX13/2319Z TN03/2312Z
BECMG 2308/2310 VRB05KT NSW SCT030 BKN090
BECMG 2312/314 25015KT